SWA3594 PHOG-PHNL
Flight info
| Callsign | SWA3594 |
|---|---|
| Flight time | 0h 26m |
| Altitude | 12000 |
| Route | MAUI5 OGG LNY JULLE5 |
| Aircraft | B38M/M-SADE2E3GHIJ4J7P2RWZ/LB1D1 |
Departure
| Time | 2026-04-21 22:05 |
|---|---|
| Airport | Kahului International Airport (PHOG) |
Arrival
| Time | 2026-04-21 22:32 |
|---|---|
| Airport | Daniel K. Inouye International Airport (PHNL) |
| Time | Latitude | Longitude | Altitude | Speed | Heading |
|---|---|---|---|---|---|
| 2026-04-21 21:37 | 20.89330 | -156.43641 | 47 ft | 0 kts | 305° |
| 2026-04-21 21:56 | 20.89329 | -156.43640 | 47 ft | 2 kts | 305° |
| 2026-04-21 21:56 | 20.89314 | -156.43618 | 45 ft | 4 kts | 305° |
| 2026-04-21 21:56 | 20.89299 | -156.43594 | 44 ft | 4 kts | 305° |
| 2026-04-21 21:56 | 20.89283 | -156.43571 | 45 ft | 4 kts | 305° |
| 2026-04-21 21:57 | 20.89279 | -156.43564 | 45 ft | 2 kts | 305° |
| 2026-04-21 22:02 | 20.89280 | -156.43567 | 47 ft | 1 kts | 297° |
| 2026-04-21 22:02 | 20.89277 | -156.43580 | 56 ft | 2 kts | 242° |
| 2026-04-21 22:03 | 20.89257 | -156.43589 | 47 ft | 5 kts | 191° |
| 2026-04-21 22:03 | 20.89213 | -156.43590 | 47 ft | 8 kts | 180° |
| 2026-04-21 22:03 | 20.89152 | -156.43617 | 47 ft | 11 kts | 214° |
| 2026-04-21 22:03 | 20.89082 | -156.43668 | 47 ft | 9 kts | 214° |
| 2026-04-21 22:04 | 20.89032 | -156.43704 | 45 ft | 10 kts | 207° |
| 2026-04-21 22:04 | 20.88970 | -156.43676 | 47 ft | 11 kts | 128° |
| 2026-04-21 22:04 | 20.88960 | -156.43612 | 47 ft | 8 kts | 66° |
| 2026-04-21 22:04 | 20.89000 | -156.43575 | 45 ft | 2 kts | 32° |
| 2026-04-21 22:05 | 20.89062 | -156.43529 | 46 ft | 42 kts | 35° |
| 2026-04-21 22:05 | 20.89585 | -156.43139 | 50 ft | 137 kts | 34° |
| 2026-04-21 22:05 | 20.90549 | -156.42413 | 359 ft | 193 kts | 33° |
| 2026-04-21 22:05 | 20.91724 | -156.41847 | 1835 ft | 173 kts | 12° |
| 2026-04-21 22:06 | 20.92947 | -156.41619 | 2870 ft | 188 kts | 8° |
| 2026-04-21 22:06 | 20.94310 | -156.41391 | 3600 ft | 209 kts | 5° |
| 2026-04-21 22:06 | 20.95798 | -156.41716 | 4247 ft | 233 kts | 332° |
| 2026-04-21 22:06 | 20.97077 | -156.42883 | 4985 ft | 250 kts | 311° |
| 2026-04-21 22:07 | 20.98210 | -156.44298 | 6048 ft | 251 kts | 310° |
| 2026-04-21 22:07 | 20.99351 | -156.45745 | 7002 ft | 259 kts | 310° |
| 2026-04-21 22:07 | 21.00519 | -156.47201 | 8225 ft | 257 kts | 310° |
| 2026-04-21 22:07 | 21.01714 | -156.48667 | 9161 ft | 273 kts | 310° |
| 2026-04-21 22:08 | 21.03005 | -156.50241 | 10035 ft | 287 kts | 310° |
| 2026-04-21 22:08 | 21.04146 | -156.52033 | 10841 ft | 301 kts | 292° |
| 2026-04-21 22:08 | 21.04562 | -156.54286 | 11449 ft | 320 kts | 269° |
| 2026-04-21 22:08 | 21.04139 | -156.56676 | 11717 ft | 334 kts | 249° |
| 2026-04-21 22:09 | 21.02895 | -156.58779 | 11848 ft | 339 kts | 227° |
| 2026-04-21 22:09 | 21.00998 | -156.60318 | 11929 ft | 352 kts | 212° |
| 2026-04-21 22:09 | 20.98812 | -156.61629 | 11928 ft | 369 kts | 210° |
| 2026-04-21 22:09 | 20.96512 | -156.62981 | 11935 ft | 386 kts | 210° |
| 2026-04-21 22:10 | 20.94127 | -156.64385 | 11938 ft | 394 kts | 210° |
| 2026-04-21 22:10 | 20.91709 | -156.65809 | 11951 ft | 399 kts | 210° |
| 2026-04-21 22:10 | 20.89276 | -156.67238 | 11987 ft | 400 kts | 210° |
| 2026-04-21 22:10 | 20.86832 | -156.68660 | 11990 ft | 400 kts | 210° |
| 2026-04-21 22:11 | 20.84460 | -156.70214 | 11983 ft | 397 kts | 221° |
| 2026-04-21 22:11 | 20.82656 | -156.72377 | 12002 ft | 394 kts | 239° |
| 2026-04-21 22:11 | 20.81545 | -156.75041 | 12028 ft | 393 kts | 253° |
| 2026-04-21 22:11 | 20.80998 | -156.77897 | 12027 ft | 392 kts | 264° |
| 2026-04-21 22:12 | 20.80499 | -156.80757 | 12020 ft | 392 kts | 253° |
| 2026-04-21 22:12 | 20.79703 | -156.83548 | 12041 ft | 393 kts | 255° |
| 2026-04-21 22:12 | 20.78989 | -156.86339 | 12051 ft | 393 kts | 256° |
| 2026-04-21 22:12 | 20.78284 | -156.89202 | 12046 ft | 393 kts | 256° |
| 2026-04-21 22:13 | 20.77603 | -156.92030 | 12042 ft | 393 kts | 256° |
| 2026-04-21 22:13 | 20.76974 | -156.94839 | 12036 ft | 393 kts | 262° |
| 2026-04-21 22:13 | 20.76978 | -156.97740 | 12039 ft | 392 kts | 280° |
| 2026-04-21 22:13 | 20.77712 | -157.00534 | 12050 ft | 392 kts | 288° |
| 2026-04-21 22:14 | 20.78565 | -157.03301 | 12044 ft | 392 kts | 288° |
| 2026-04-21 22:14 | 20.79436 | -157.06066 | 12040 ft | 392 kts | 289° |
| 2026-04-21 22:14 | 20.80316 | -157.08823 | 12033 ft | 392 kts | 289° |
| 2026-04-21 22:14 | 20.81201 | -157.11579 | 12025 ft | 392 kts | 289° |
| 2026-04-21 22:15 | 20.82090 | -157.14334 | 12017 ft | 392 kts | 289° |
| 2026-04-21 22:15 | 20.82978 | -157.17090 | 12009 ft | 392 kts | 289° |
| 2026-04-21 22:15 | 20.83866 | -157.19846 | 12002 ft | 392 kts | 289° |
| 2026-04-21 22:15 | 20.84755 | -157.22607 | 11996 ft | 392 kts | 289° |
| 2026-04-21 22:16 | 20.85631 | -157.25328 | 11989 ft | 392 kts | 289° |
| 2026-04-21 22:16 | 20.86519 | -157.28089 | 11980 ft | 392 kts | 289° |
| 2026-04-21 22:16 | 20.87407 | -157.30851 | 11975 ft | 392 kts | 289° |
| 2026-04-21 22:16 | 20.88291 | -157.33602 | 11970 ft | 391 kts | 289° |
| 2026-04-21 22:17 | 20.89178 | -157.36365 | 11968 ft | 391 kts | 289° |
| 2026-04-21 22:17 | 20.90061 | -157.39117 | 11968 ft | 391 kts | 289° |
| 2026-04-21 22:17 | 20.90946 | -157.41874 | 11970 ft | 391 kts | 289° |
| 2026-04-21 22:17 | 20.91812 | -157.44575 | 11977 ft | 375 kts | 289° |
| 2026-04-21 22:18 | 20.92641 | -157.47164 | 11721 ft | 364 kts | 289° |
| 2026-04-21 22:18 | 20.93438 | -157.49654 | 11506 ft | 353 kts | 289° |
| 2026-04-21 22:18 | 20.94223 | -157.52108 | 11293 ft | 343 kts | 289° |
| 2026-04-21 22:18 | 20.94983 | -157.54484 | 11118 ft | 332 kts | 289° |
| 2026-04-21 22:19 | 20.95711 | -157.56760 | 10934 ft | 314 kts | 289° |
| 2026-04-21 22:19 | 20.96394 | -157.58899 | 10758 ft | 295 kts | 289° |
| 2026-04-21 22:19 | 20.97040 | -157.60922 | 10605 ft | 277 kts | 289° |
| 2026-04-21 22:19 | 20.97644 | -157.62814 | 10457 ft | 261 kts | 289° |
| 2026-04-21 22:20 | 20.98219 | -157.64619 | 10326 ft | 255 kts | 289° |
| 2026-04-21 22:20 | 20.98606 | -157.65831 | 10251 ft | 266 kts | 289° |
| 2026-04-21 22:20 | 20.99214 | -157.67737 | 10134 ft | 273 kts | 289° |
| 2026-04-21 22:20 | 20.99834 | -157.69681 | 9968 ft | 277 kts | 289° |
| 2026-04-21 22:21 | 21.00458 | -157.71641 | 9642 ft | 279 kts | 289° |
| 2026-04-21 22:21 | 21.01084 | -157.73606 | 9314 ft | 279 kts | 289° |
| 2026-04-21 22:21 | 21.01707 | -157.75562 | 8991 ft | 277 kts | 289° |
| 2026-04-21 22:21 | 21.02327 | -157.77511 | 8687 ft | 275 kts | 289° |
| 2026-04-21 22:22 | 21.02933 | -157.79419 | 8386 ft | 273 kts | 289° |
| 2026-04-21 22:22 | 21.03544 | -157.81340 | 8085 ft | 271 kts | 289° |
| 2026-04-21 22:22 | 21.04151 | -157.83251 | 7788 ft | 270 kts | 289° |
| 2026-04-21 22:22 | 21.04753 | -157.85145 | 7496 ft | 268 kts | 289° |
| 2026-04-21 22:23 | 21.05351 | -157.87029 | 7195 ft | 266 kts | 288° |
| 2026-04-21 22:23 | 21.05945 | -157.88901 | 6905 ft | 265 kts | 288° |
| 2026-04-21 22:23 | 21.06536 | -157.90766 | 6614 ft | 264 kts | 288° |
| 2026-04-21 22:23 | 21.07126 | -157.92625 | 6303 ft | 263 kts | 288° |
| 2026-04-21 22:24 | 21.07703 | -157.94483 | 5992 ft | 262 kts | 285° |
| 2026-04-21 22:24 | 21.07884 | -157.96412 | 5660 ft | 261 kts | 272° |
| 2026-04-21 22:24 | 21.08113 | -157.98330 | 5366 ft | 258 kts | 283° |
| 2026-04-21 22:24 | 21.08583 | -158.00148 | 5078 ft | 248 kts | 288° |
| 2026-04-21 22:25 | 21.09142 | -158.01859 | 4822 ft | 238 kts | 291° |
| 2026-04-21 22:25 | 21.09775 | -158.03470 | 4596 ft | 233 kts | 295° |
| 2026-04-21 22:25 | 21.10503 | -158.05018 | 4374 ft | 232 kts | 299° |
| 2026-04-21 22:25 | 21.11323 | -158.06497 | 4165 ft | 229 kts | 303° |
| 2026-04-21 22:26 | 21.12206 | -158.07868 | 4038 ft | 220 kts | 307° |
| 2026-04-21 22:26 | 21.13148 | -158.09142 | 3943 ft | 217 kts | 310° |
| 2026-04-21 22:26 | 21.14158 | -158.10339 | 3836 ft | 216 kts | 314° |
| 2026-04-21 22:26 | 21.15328 | -158.11285 | 3720 ft | 214 kts | 339° |
| 2026-04-21 22:27 | 21.16780 | -158.11535 | 3595 ft | 213 kts | 6° |
| 2026-04-21 22:27 | 21.18178 | -158.11048 | 3494 ft | 213 kts | 32° |
| 2026-04-21 22:27 | 21.19234 | -158.09953 | 3457 ft | 213 kts | 53° |
| 2026-04-21 22:27 | 21.20136 | -158.08685 | 3336 ft | 214 kts | 52° |
| 2026-04-21 22:28 | 21.21038 | -158.07415 | 3150 ft | 214 kts | 52° |
| 2026-04-21 22:28 | 21.21941 | -158.06138 | 2884 ft | 213 kts | 52° |
| 2026-04-21 22:28 | 21.22816 | -158.04897 | 2657 ft | 203 kts | 52° |
| 2026-04-21 22:28 | 21.23644 | -158.03721 | 2435 ft | 191 kts | 52° |
| 2026-04-21 22:29 | 21.24410 | -158.02633 | 2209 ft | 177 kts | 52° |
| 2026-04-21 22:29 | 21.25109 | -158.01639 | 2060 ft | 160 kts | 52° |
| 2026-04-21 22:29 | 21.25775 | -158.00693 | 1866 ft | 158 kts | 52° |
| 2026-04-21 22:29 | 21.26416 | -157.99782 | 1664 ft | 148 kts | 52° |
| 2026-04-21 22:30 | 21.27024 | -157.98919 | 1431 ft | 143 kts | 52° |
| 2026-04-21 22:30 | 21.27621 | -157.98071 | 1241 ft | 143 kts | 53° |
| 2026-04-21 22:30 | 21.28222 | -157.97216 | 1059 ft | 145 kts | 53° |
| 2026-04-21 22:30 | 21.28834 | -157.96345 | 869 ft | 147 kts | 53° |
| 2026-04-21 22:31 | 21.29466 | -157.95485 | 673 ft | 147 kts | 53° |
| 2026-04-21 22:31 | 21.30091 | -157.94619 | 501 ft | 146 kts | 56° |
| 2026-04-21 22:31 | 21.30698 | -157.93738 | 330 ft | 147 kts | 57° |
| 2026-04-21 22:31 | 21.31306 | -157.92854 | 106 ft | 146 kts | 57° |
| 2026-04-21 22:32 | 21.31885 | -157.92008 | 27 ft | 125 kts | 54° |
| 2026-04-21 22:32 | 21.32249 | -157.91504 | 26 ft | 48 kts | 53° |
| 2026-04-21 22:32 | 21.32381 | -157.91389 | 26 ft | 21 kts | 26° |
| 2026-04-21 22:32 | 21.32487 | -157.91346 | 26 ft | 17 kts | 12° |
| 2026-04-21 22:33 | 21.32610 | -157.91328 | 26 ft | 15 kts | 9° |
| 2026-04-21 22:33 | 21.32721 | -157.91310 | 26 ft | 18 kts | 7° |
| 2026-04-21 22:33 | 21.32773 | -157.91337 | 26 ft | 7 kts | 275° |
| 2026-04-21 22:33 | 21.32774 | -157.91406 | 26 ft | 11 kts | 270° |
| 2026-04-21 22:34 | 21.32774 | -157.91500 | 26 ft | 14 kts | 270° |
| 2026-04-21 22:34 | 21.32774 | -157.91620 | 26 ft | 18 kts | 270° |
| 2026-04-21 22:34 | 21.32773 | -157.91764 | 26 ft | 21 kts | 269° |
| 2026-04-21 22:34 | 21.32773 | -157.91913 | 26 ft | 19 kts | 270° |
| 2026-04-21 22:35 | 21.32774 | -157.92053 | 26 ft | 15 kts | 270° |
| 2026-04-21 22:35 | 21.32776 | -157.92166 | 27 ft | 17 kts | 278° |
| 2026-04-21 22:35 | 21.32789 | -157.92193 | 27 ft | 0 kts | 334° |
| 2026-04-21 22:35 | 21.32793 | -157.92193 | 27 ft | 1 kts | 357° |
| 2026-04-21 22:36 | 21.32862 | -157.92171 | 27 ft | 8 kts | 11° |
| 2026-04-21 22:36 | 21.32905 | -157.92127 | 26 ft | 10 kts | 65° |
| 2026-04-21 22:36 | 21.32920 | -157.92089 | 26 ft | 0 kts | 68° |